createdAt,value
2022-07-28T05:02:33.626Z,100.00
2022-07-28T05:05:01.392Z,100.00
2022-07-28T05:07:29.102Z,100.00
2022-07-28T05:09:56.955Z,100.00
2022-07-28T05:12:24.741Z,100.00
2022-07-28T05:14:52.499Z,100.00
2022-07-28T05:17:20.211Z,100.00
2022-07-28T05:19:49.339Z,100.00
2022-07-28T05:22:17.441Z,100.00
2022-07-28T05:24:45.212Z,100.00
2022-07-28T05:27:13.159Z,100.00
2022-07-28T05:29:47.163Z,100.00
2022-07-28T05:32:16.876Z,100.00
2022-07-28T05:34:45.638Z,100.00
2022-07-28T05:37:14.805Z,100.00
2022-07-28T05:39:42.579Z,100.00
2022-07-28T05:42:10.290Z,100.00
2022-07-28T05:44:38.620Z,100.00
2022-07-28T05:47:06.833Z,100.00
2022-07-28T05:49:35.218Z,100.00
2022-07-28T05:52:03.300Z,100.00
2022-07-28T05:54:32.383Z,100.00
2022-07-28T05:57:00.140Z,100.00
2022-07-28T05:59:27.981Z,100.00
2022-07-28T06:01:55.774Z,100.00
2022-07-28T06:04:26.786Z,100.00
2022-07-28T06:06:55.907Z,100.00
2022-07-28T06:09:23.627Z,100.00
2022-07-28T06:11:52.756Z,100.00
2022-07-28T06:14:20.535Z,100.00
2022-07-28T06:16:50.932Z,100.00
2022-07-28T06:19:19.093Z,100.00
2022-07-28T06:21:47.452Z,100.00
2022-07-28T06:24:15.730Z,100.00
2022-07-28T06:26:44.961Z,100.00
2022-07-28T06:29:14.300Z,100.00
2022-07-28T06:31:42.062Z,100.00
2022-07-28T06:34:09.833Z,100.00
2022-07-28T06:36:37.565Z,100.00
2022-07-28T06:39:05.504Z,100.00
2022-07-28T06:41:33.307Z,100.00
2022-07-28T06:44:02.240Z,100.00
2022-07-28T06:46:31.826Z,100.00
2022-07-28T06:48:59.672Z,100.00
2022-07-28T06:51:27.468Z,100.00
2022-07-28T06:53:55.952Z,100.00
2022-07-28T06:56:26.710Z,100.00
2022-07-28T06:58:54.580Z,100.00
2022-07-28T07:01:22.715Z,100.00
2022-07-28T07:03:54.005Z,100.00
2022-07-28T07:06:21.807Z,100.00
2022-07-28T07:08:49.616Z,100.00
2022-07-28T07:11:17.411Z,100.00
2022-07-28T07:13:45.149Z,100.00
2022-07-28T07:16:12.974Z,100.00
2022-07-28T07:18:40.732Z,100.00
2022-07-28T07:21:09.894Z,100.00
2022-07-28T07:23:37.793Z,100.00
2022-07-28T07:26:05.654Z,100.00
2022-07-28T07:28:34.241Z,100.00
2022-07-28T07:31:02.042Z,100.00
2022-07-28T07:33:29.856Z,100.00
2022-07-28T07:35:57.687Z,100.00
2022-07-28T07:38:29.303Z,100.00
2022-07-28T07:40:57.306Z,100.00
2022-07-28T07:43:25.040Z,100.00
2022-07-28T07:45:52.811Z,100.00
2022-07-28T07:48:20.705Z,100.00
2022-07-28T07:50:53.609Z,100.00
2022-07-28T07:53:22.899Z,100.00
2022-07-28T07:55:52.158Z,100.00
2022-07-28T07:58:20.215Z,100.00
2022-07-28T08:00:48.032Z,100.00
2022-07-28T08:03:16.731Z,100.00
2022-07-28T08:05:51.661Z,100.00
2022-07-28T08:08:19.405Z,100.00
2022-07-28T08:10:51.046Z,100.00
2022-07-28T08:13:23.013Z,100.00
2022-07-28T08:15:51.271Z,100.00
2022-07-28T08:18:19.333Z,100.00
2022-07-28T08:20:47.131Z,100.00
2022-07-28T08:23:14.946Z,100.00
2022-07-28T08:25:44.334Z,100.00
2022-07-28T08:28:12.151Z,100.00
2022-07-28T08:30:41.429Z,100.00
2022-07-28T08:33:10.165Z,100.00
2022-07-28T08:35:37.977Z,100.00
2022-07-28T08:38:06.467Z,100.00
2022-07-28T08:40:37.317Z,100.00
2022-07-28T08:43:15.044Z,100.00
2022-07-28T08:45:48.909Z,100.00
2022-07-28T08:48:18.988Z,100.00
2022-07-28T08:50:48.416Z,100.00
2022-07-28T08:53:16.614Z,100.00
2022-07-28T08:55:45.083Z,100.00
2022-07-28T08:58:13.286Z,100.00
2022-07-28T09:00:42.274Z,100.00
2022-07-28T09:03:12.472Z,100.00
2022-07-28T09:05:42.441Z,100.00
2022-07-28T09:08:11.921Z,100.00
2022-07-28T09:10:39.940Z,100.00
2022-07-28T09:13:07.744Z,100.00
2022-07-28T09:15:37.562Z,100.00
2022-07-28T09:18:05.885Z,100.00
2022-07-28T09:20:37.017Z,100.00
2022-07-28T09:23:42.469Z,100.00
2022-07-28T09:26:10.965Z,100.00
2022-07-28T09:28:48.830Z,100.00
2022-07-28T09:31:17.041Z,100.00
2022-07-28T09:33:55.324Z,100.00
2022-07-28T09:36:24.920Z,100.00
2022-07-28T09:38:53.004Z,100.00
2022-07-28T09:41:21.930Z,100.00
2022-07-28T09:43:54.931Z,100.00
2022-07-28T09:46:25.039Z,100.00
2022-07-28T09:48:57.773Z,100.00
2022-07-28T09:51:28.673Z,100.00
2022-07-28T09:54:08.562Z,100.00
2022-07-28T09:56:36.886Z,100.00
2022-07-28T09:59:05.241Z,100.00
2022-07-28T10:01:50.808Z,100.00
2022-07-28T10:04:30.303Z,100.00
2022-07-28T10:07:05.521Z,100.00
2022-07-28T10:09:33.746Z,100.00
2022-07-28T10:12:18.948Z,100.00
2022-07-28T10:14:47.454Z,100.00
2022-07-28T10:17:26.330Z,99.71
2022-07-28T10:19:55.115Z,100.00
2022-07-28T10:22:27.854Z,96.13
2022-07-28T10:24:57.538Z,91.11
2022-07-28T10:27:26.115Z,89.76
2022-07-28T10:29:58.512Z,98.85
2022-07-28T10:32:26.628Z,100.00
2022-07-28T10:35:02.231Z,100.00
2022-07-28T10:37:35.270Z,100.00
2022-07-28T10:40:10.014Z,100.00
2022-07-28T10:42:40.154Z,95.80
2022-07-28T10:45:10.530Z,100.00
2022-07-28T10:47:38.343Z,95.97
2022-07-28T10:50:08.507Z,91.84
2022-07-28T10:52:48.887Z,87.43
2022-07-28T10:55:24.243Z,90.50
2022-07-28T10:58:02.016Z,90.86
2022-07-28T11:00:55.376Z,88.70
2022-07-28T11:03:44.193Z,94.83
2022-07-28T11:06:26.515Z,86.02
2022-07-28T11:08:56.403Z,87.46
2022-07-28T11:11:46.197Z,85.04
2022-07-28T11:14:37.705Z,90.13
2022-07-28T11:17:24.603Z,95.56
2022-07-28T11:20:24.693Z,90.02
2022-07-28T11:22:48.560Z,92.11
2022-07-28T11:25:22.263Z,83.50
2022-07-28T11:28:06.714Z,81.26
2022-07-28T11:30:58.058Z,81.16
2022-07-28T11:33:27.510Z,81.89
2022-07-28T11:35:58.190Z,87.77
2022-07-28T11:38:26.090Z,82.47
2022-07-28T11:40:57.402Z,82.11
2022-07-28T11:43:39.075Z,79.55
2022-07-28T11:46:25.325Z,73.85
2022-07-28T11:49:19.691Z,74.95
2022-07-28T11:52:16.728Z,78.44
2022-07-28T11:54:56.689Z,77.71
2022-07-28T11:57:27.597Z,71.23
2022-07-28T12:00:00.813Z,74.53
2022-07-28T12:02:33.212Z,74.24
2022-07-28T12:05:08.652Z,70.88
2022-07-28T12:07:41.894Z,79.46
2022-07-28T12:10:53.340Z,77.26
2022-07-28T12:13:26.863Z,73.75
2022-07-28T12:15:54.669Z,74.45
2022-07-28T12:18:24.931Z,70.38
2022-07-28T12:20:54.874Z,68.34
2022-07-28T12:23:45.877Z,65.61
2022-07-28T12:26:31.751Z,70.29
2022-07-28T12:29:01.441Z,64.06
2022-07-28T12:31:33.098Z,66.23
2022-07-28T12:34:01.517Z,69.37
2022-07-28T12:36:30.474Z,67.40
2022-07-28T12:38:58.477Z,72.21
2022-07-28T12:41:32.583Z,63.04
2022-07-28T12:44:05.800Z,64.67
2022-07-28T12:46:34.501Z,58.64
2022-07-28T12:49:03.289Z,62.35
2022-07-28T12:51:35.521Z,61.98
2022-07-28T12:54:04.508Z,63.78
2022-07-28T12:56:32.535Z,63.27
2022-07-28T12:59:10.462Z,61.02
2022-07-28T13:01:51.941Z,67.82
2022-07-28T13:04:42.597Z,61.04
2022-07-28T13:07:13.635Z,64.71
2022-07-28T13:09:47.151Z,63.37
2022-07-28T13:12:19.521Z,66.75
2022-07-28T13:14:52.171Z,65.44
2022-07-28T13:17:21.025Z,65.09
2022-07-28T13:19:49.466Z,63.92
2022-07-28T13:22:27.867Z,60.47
2022-07-28T13:24:56.932Z,67.04
2022-07-28T13:27:24.911Z,64.14
2022-07-28T13:29:54.867Z,65.17
2022-07-28T13:32:22.945Z,62.12
2022-07-28T13:34:51.334Z,59.50
2022-07-28T13:37:20.340Z,63.56
2022-07-28T13:39:54.143Z,71.62
2022-07-28T13:42:23.816Z,67.25
2022-07-28T13:44:51.862Z,66.00
2022-07-28T13:47:21.267Z,63.87
2022-07-28T13:49:49.175Z,62.15
2022-07-28T13:52:33.286Z,61.73
2022-07-28T13:55:05.849Z,68.39
2022-07-28T13:57:36.733Z,67.29
2022-07-28T14:00:07.706Z,67.10
2022-07-28T14:02:37.415Z,65.29
2022-07-28T14:05:06.439Z,68.60
2022-07-28T14:07:34.260Z,69.72
2022-07-28T14:10:02.064Z,63.89
2022-07-28T14:12:30.030Z,65.53
2022-07-28T14:14:57.765Z,66.60
2022-07-28T14:17:44.297Z,66.98
2022-07-28T14:20:16.138Z,70.72
2022-07-28T14:22:44.475Z,75.52
2022-07-28T14:25:20.683Z,67.83
2022-07-28T14:27:50.039Z,68.11
2022-07-28T14:30:19.067Z,67.63
2022-07-28T14:32:47.110Z,66.48
2022-07-28T14:35:16.858Z,72.67
2022-07-28T14:38:28.489Z,70.92
2022-07-28T14:40:33.197Z,65.92
2022-07-28T14:43:07.174Z,67.71
2022-07-28T14:45:51.392Z,66.62
2022-07-28T14:48:23.333Z,66.95
2022-07-28T14:50:55.340Z,65.25
2022-07-28T14:53:23.116Z,67.48
2022-07-28T14:55:50.828Z,67.75
2022-07-28T14:58:18.612Z,64.70
2022-07-28T15:00:46.335Z,70.14
2022-07-28T15:03:14.292Z,66.41
2022-07-28T15:05:42.077Z,68.00
2022-07-28T15:08:11.209Z,70.66
2022-07-28T15:10:39.187Z,67.92
2022-07-28T15:13:07.033Z,66.13
2022-07-28T15:15:39.433Z,65.94
2022-07-28T15:18:11.465Z,67.57
2022-07-28T15:20:40.639Z,66.21
2022-07-28T15:23:10.569Z,65.58
2022-07-28T15:25:39.753Z,63.49
2022-07-28T15:28:07.943Z,66.09
2022-07-28T15:30:35.664Z,68.27
2022-07-28T15:33:09.303Z,66.07
2022-07-28T15:35:58.610Z,65.05
2022-07-28T15:38:25.197Z,64.30
2022-07-28T15:40:54.341Z,64.12
2022-07-28T15:43:23.990Z,64.63
2022-07-28T15:45:52.295Z,63.10
2022-07-28T15:48:20.067Z,63.03
2022-07-28T15:50:48.761Z,63.36
2022-07-28T15:53:16.981Z,61.54
2022-07-28T15:55:50.472Z,60.86
2022-07-28T15:58:20.594Z,59.73
2022-07-28T16:00:48.628Z,60.09
2022-07-28T16:03:16.660Z,59.29
2022-07-28T16:05:49.292Z,59.56
2022-07-28T16:08:17.458Z,63.35
2022-07-28T16:10:45.240Z,60.79
2022-07-28T16:13:13.006Z,59.66
2022-07-28T16:15:42.127Z,59.03
2022-07-28T16:18:09.942Z,59.57
2022-07-28T16:20:39.027Z,59.94
2022-07-28T16:23:06.830Z,62.95
2022-07-28T16:25:35.078Z,65.63
2022-07-28T16:28:04.819Z,62.13
2022-07-28T16:30:34.468Z,62.29
2022-07-28T16:33:03.958Z,61.34
2022-07-28T16:35:33.641Z,59.06
2022-07-28T16:38:02.514Z,58.42
2022-07-28T16:40:31.234Z,58.63
2022-07-28T16:42:59.891Z,57.83
2022-07-28T16:45:30.771Z,59.63
2022-07-28T16:47:59.673Z,58.11
2022-07-28T16:50:28.741Z,57.59
2022-07-28T16:52:56.807Z,59.28
2022-07-28T16:55:24.998Z,57.92
2022-07-28T16:57:53.214Z,55.99
2022-07-28T17:00:21.949Z,55.38
2022-07-28T17:02:49.681Z,55.55
2022-07-28T17:05:17.554Z,57.55
2022-07-28T17:07:47.417Z,58.73
2022-07-28T17:10:21.072Z,59.44
2022-07-28T17:12:49.687Z,53.53
2022-07-28T17:15:22.808Z,53.82
2022-07-28T17:17:51.009Z,54.57
2022-07-28T17:20:18.922Z,55.88
2022-07-28T17:22:48.087Z,55.55
2022-07-28T17:25:47.276Z,57.63
2022-07-28T17:28:04.948Z,55.04
2022-07-28T17:30:33.815Z,56.47
2022-07-28T17:33:08.104Z,55.99
2022-07-28T17:35:37.176Z,57.74
2022-07-28T17:38:09.162Z,58.47
2022-07-28T17:40:39.972Z,59.71
2022-07-28T17:43:08.773Z,61.57
2022-07-28T17:45:36.541Z,66.42
2022-07-28T17:48:04.632Z,69.06
2022-07-28T17:50:32.355Z,69.80
2022-07-28T17:53:01.687Z,71.92
2022-07-28T17:55:57.602Z,71.79
2022-07-28T17:58:29.040Z,74.68
2022-07-28T18:00:58.964Z,72.06
2022-07-28T18:03:58.941Z,76.70
2022-07-28T18:06:30.306Z,75.03
2022-07-28T18:09:05.730Z,82.18
2022-07-28T18:11:37.786Z,84.12
2022-07-28T18:14:25.268Z,87.71
2022-07-28T18:16:53.019Z,91.80
2022-07-28T18:19:20.800Z,91.95
2022-07-28T18:21:48.535Z,95.19
2022-07-28T18:24:16.777Z,97.96
2022-07-28T18:26:46.257Z,100.00
2022-07-28T18:29:14.561Z,100.00
2022-07-28T18:31:46.368Z,100.00
2022-07-28T18:34:15.170Z,100.00
2022-07-28T18:36:43.180Z,100.00
2022-07-28T18:39:11.060Z,100.00
2022-07-28T18:41:46.942Z,100.00
2022-07-28T18:44:17.682Z,100.00
2022-07-28T18:46:46.250Z,100.00
2022-07-28T18:49:14.272Z,100.00
2022-07-28T18:51:44.925Z,100.00
2022-07-28T18:54:15.073Z,100.00
2022-07-28T18:56:44.203Z,100.00
2022-07-28T18:59:11.956Z,100.00
2022-07-28T19:01:41.136Z,100.00
2022-07-28T19:04:08.898Z,100.00
2022-07-28T19:06:36.944Z,100.00
2022-07-28T19:09:05.156Z,100.00
2022-07-28T19:11:33.500Z,100.00
2022-07-28T19:14:01.722Z,100.00
2022-07-28T19:16:29.580Z,100.00
2022-07-28T19:19:02.011Z,100.00
2022-07-28T19:21:31.199Z,100.00
2022-07-28T19:23:58.894Z,100.00
2022-07-28T19:26:26.828Z,100.00
2022-07-28T19:28:56.953Z,100.00
2022-07-28T19:31:25.450Z,100.00
2022-07-28T19:33:53.580Z,100.00
2022-07-28T19:36:23.412Z,100.00
2022-07-28T19:38:51.460Z,100.00
2022-07-28T19:41:19.480Z,100.00
2022-07-28T19:43:47.461Z,100.00
2022-07-28T19:46:15.394Z,100.00
2022-07-28T19:48:43.453Z,100.00
2022-07-28T19:51:11.258Z,100.00
2022-07-28T19:53:41.040Z,100.00
2022-07-28T19:56:09.385Z,100.00
2022-07-28T19:58:37.856Z,100.00
2022-07-28T20:01:06.248Z,100.00
2022-07-28T20:04:02.329Z,100.00
2022-07-28T20:06:25.393Z,100.00
2022-07-28T20:08:56.847Z,100.00
2022-07-28T20:11:24.723Z,100.00
2022-07-28T20:13:52.526Z,100.00
2022-07-28T20:16:20.506Z,100.00
2022-07-28T20:18:50.735Z,100.00
2022-07-28T20:21:19.299Z,100.00
2022-07-28T20:23:47.216Z,100.00
2022-07-28T20:26:17.454Z,100.00
2022-07-28T20:28:51.309Z,100.00
2022-07-28T20:31:20.333Z,100.00
2022-07-28T20:33:48.468Z,100.00
2022-07-28T20:36:16.407Z,100.00
2022-07-28T20:38:45.356Z,100.00
2022-07-28T20:41:13.329Z,100.00
2022-07-28T20:43:42.735Z,100.00
2022-07-28T20:46:10.762Z,100.00
2022-07-28T20:48:38.765Z,100.00
2022-07-28T20:51:06.874Z,100.00
2022-07-28T20:53:37.427Z,100.00
2022-07-28T20:56:07.720Z,100.00
2022-07-28T20:58:35.504Z,100.00
2022-07-28T21:01:04.739Z,100.00
2022-07-28T21:03:32.543Z,100.00
2022-07-28T21:06:00.326Z,100.00
2022-07-28T21:08:28.066Z,100.00
2022-07-28T21:10:55.838Z,100.00
2022-07-28T21:13:23.637Z,100.00
2022-07-28T21:15:51.476Z,100.00
2022-07-28T21:18:20.556Z,100.00
2022-07-28T21:20:48.348Z,100.00
2022-07-28T21:23:17.445Z,100.00
2022-07-28T21:25:46.283Z,100.00
2022-07-28T21:28:31.722Z,100.00
2022-07-28T21:31:01.304Z,100.00
2022-07-28T21:33:30.476Z,100.00
2022-07-28T21:35:58.318Z,100.00
2022-07-28T21:38:26.134Z,100.00
2022-07-28T21:40:53.928Z,100.00
2022-07-28T21:43:21.677Z,100.00
2022-07-28T21:45:49.639Z,100.00
2022-07-28T21:48:19.221Z,100.00
2022-07-28T21:50:48.315Z,100.00
2022-07-28T21:53:17.372Z,100.00
2022-07-28T21:55:45.727Z,100.00
2022-07-28T21:58:13.605Z,100.00
2022-07-28T22:00:41.689Z,100.00
2022-07-28T22:03:09.673Z,100.00
2022-07-28T22:05:37.508Z,100.00
2022-07-28T22:08:08.630Z,100.00
2022-07-28T22:10:36.403Z,100.00
2022-07-28T22:13:04.193Z,100.00
2022-07-28T22:15:31.967Z,100.00
2022-07-28T22:17:59.726Z,100.00
2022-07-28T22:20:27.505Z,100.00
2022-07-28T22:22:55.609Z,100.00
2022-07-28T22:25:24.736Z,100.00
2022-07-28T22:27:52.501Z,100.00
2022-07-28T22:30:20.317Z,100.00
2022-07-28T22:32:48.050Z,100.00
2022-07-28T22:35:15.866Z,100.00
2022-07-28T22:37:44.672Z,100.00
2022-07-28T22:40:13.519Z,100.00
2022-07-28T22:42:43.758Z,100.00
2022-07-28T22:45:13.271Z,100.00
2022-07-28T22:47:41.067Z,100.00
2022-07-28T22:50:10.442Z,100.00
2022-07-28T22:52:38.338Z,100.00
2022-07-28T22:55:07.319Z,100.00
2022-07-28T22:57:35.017Z,100.00
